sensor_id;sensor_type;location;lat;lon;timestamp;temperature;humidity
3644;DHT22;1838;50.742;7.158;2022-08-04T00:00:04;23.50;99.90
3644;DHT22;1838;50.742;7.158;2022-08-04T00:05:45;23.40;99.90
3644;DHT22;1838;50.742;7.158;2022-08-04T00:08:21;23.30;99.90
3644;DHT22;1838;50.742;7.158;2022-08-04T00:10:53;23.30;99.90
3644;DHT22;1838;50.742;7.158;2022-08-04T00:13:25;23.30;99.90
3644;DHT22;1838;50.742;7.158;2022-08-04T00:15:57;23.20;99.90
3644;DHT22;1838;50.742;7.158;2022-08-04T00:18:27;23.10;99.90
3644;DHT22;1838;50.742;7.158;2022-08-04T00:20:58;23.10;99.90
3644;DHT22;1838;50.742;7.158;2022-08-04T00:23:25;23.00;99.90
3644;DHT22;1838;50.742;7.158;2022-08-04T00:25:52;23.00;99.90
3644;DHT22;1838;50.742;7.158;2022-08-04T00:28:19;23.00;99.90
3644;DHT22;1838;50.742;7.158;2022-08-04T00:30:45;22.90;99.90
3644;DHT22;1838;50.742;7.158;2022-08-04T00:33:12;22.90;99.90
3644;DHT22;1838;50.742;7.158;2022-08-04T00:35:43;22.90;99.90
3644;DHT22;1838;50.742;7.158;2022-08-04T00:38:10;22.80;99.90
3644;DHT22;1838;50.742;7.158;2022-08-04T00:43:50;22.60;99.90
3644;DHT22;1838;50.742;7.158;2022-08-04T00:49:03;22.30;99.90
3644;DHT22;1838;50.742;7.158;2022-08-04T00:51:43;22.20;99.90
3644;DHT22;1838;50.742;7.158;2022-08-04T00:54:14;22.20;99.90
3644;DHT22;1838;50.742;7.158;2022-08-04T00:59:33;22.10;99.90
3644;DHT22;1838;50.742;7.158;2022-08-04T01:08:16;22.30;99.90
3644;DHT22;1838;50.742;7.158;2022-08-04T01:10:58;22.30;99.90
3644;DHT22;1838;50.742;7.158;2022-08-04T01:16:17;22.10;99.90
3644;DHT22;1838;50.742;7.158;2022-08-04T01:18:52;22.00;99.90
3644;DHT22;1838;50.742;7.158;2022-08-04T01:29:23;22.00;99.90
3644;DHT22;1838;50.742;7.158;2022-08-04T01:32:03;21.80;99.90
3644;DHT22;1838;50.742;7.158;2022-08-04T01:34:51;21.80;99.90
3644;DHT22;1838;50.742;7.158;2022-08-04T01:37:50;21.80;99.90
3644;DHT22;1838;50.742;7.158;2022-08-04T01:40:17;21.90;99.90
3644;DHT22;1838;50.742;7.158;2022-08-04T01:42:44;21.90;99.90
3644;DHT22;1838;50.742;7.158;2022-08-04T01:45:12;21.90;99.90
3644;DHT22;1838;50.742;7.158;2022-08-04T01:47:42;22.00;99.90
3644;DHT22;1838;50.742;7.158;2022-08-04T01:50:12;22.00;99.90
3644;DHT22;1838;50.742;7.158;2022-08-04T01:52:40;22.00;99.90
3644;DHT22;1838;50.742;7.158;2022-08-04T01:55:09;21.90;99.90
3644;DHT22;1838;50.742;7.158;2022-08-04T01:57:40;21.90;99.90
3644;DHT22;1838;50.742;7.158;2022-08-04T02:00:08;21.90;99.90
3644;DHT22;1838;50.742;7.158;2022-08-04T02:02:33;21.90;99.90
3644;DHT22;1838;50.742;7.158;2022-08-04T02:04:59;21.80;99.90
3644;DHT22;1838;50.742;7.158;2022-08-04T02:10:45;22.00;99.90
3644;DHT22;1838;50.742;7.158;2022-08-04T02:13:26;22.00;99.90
3644;DHT22;1838;50.742;7.158;2022-08-04T02:16:02;22.00;99.90
3644;DHT22;1838;50.742;7.158;2022-08-04T02:21:31;22.10;99.90
3644;DHT22;1838;50.742;7.158;2022-08-04T02:24:12;22.00;99.90
3644;DHT22;1838;50.742;7.158;2022-08-04T02:26:40;21.90;99.90
3644;DHT22;1838;50.742;7.158;2022-08-04T02:29:20;21.70;99.90
3644;DHT22;1838;50.742;7.158;2022-08-04T02:37:03;21.30;99.90
3644;DHT22;1838;50.742;7.158;2022-08-04T02:39:33;21.30;99.90
3644;DHT22;1838;50.742;7.158;2022-08-04T02:42:01;21.20;99.90
3644;DHT22;1838;50.742;7.158;2022-08-04T02:44:27;21.30;99.90
3644;DHT22;1838;50.742;7.158;2022-08-04T02:46:54;21.20;99.90
3644;DHT22;1838;50.742;7.158;2022-08-04T02:49:21;21.30;99.90
3644;DHT22;1838;50.742;7.158;2022-08-04T02:51:53;21.30;99.90
3644;DHT22;1838;50.742;7.158;2022-08-04T02:54:24;21.30;99.90
3644;DHT22;1838;50.742;7.158;2022-08-04T02:56:52;21.30;99.90
3644;DHT22;1838;50.742;7.158;2022-08-04T02:59:24;21.30;99.90
3644;DHT22;1838;50.742;7.158;2022-08-04T03:01:50;21.30;99.90
3644;DHT22;1838;50.742;7.158;2022-08-04T03:04:32;21.30;99.90
3644;DHT22;1838;50.742;7.158;2022-08-04T03:18:46;20.90;99.90
3644;DHT22;1838;50.742;7.158;2022-08-04T03:24:41;20.90;99.90
3644;DHT22;1838;50.742;7.158;2022-08-04T03:30:06;20.80;99.90
3644;DHT22;1838;50.742;7.158;2022-08-04T03:33:07;20.80;99.90
3644;DHT22;1838;50.742;7.158;2022-08-04T03:38:29;20.80;99.90
3644;DHT22;1838;50.742;7.158;2022-08-04T03:49:53;20.80;99.90
3644;DHT22;1838;50.742;7.158;2022-08-04T04:01:09;20.70;99.90
3644;DHT22;1838;50.742;7.158;2022-08-04T04:15:44;20.50;99.90
3644;DHT22;1838;50.742;7.158;2022-08-04T04:18:15;20.40;99.90
3644;DHT22;1838;50.742;7.158;2022-08-04T04:20:55;20.50;99.90
3644;DHT22;1838;50.742;7.158;2022-08-04T04:26:29;20.60;99.90
3644;DHT22;1838;50.742;7.158;2022-08-04T04:29:01;20.60;99.90
3644;DHT22;1838;50.742;7.158;2022-08-04T04:34:52;21.00;99.90
3644;DHT22;1838;50.742;7.158;2022-08-04T04:40:21;21.60;99.90
3644;DHT22;1838;50.742;7.158;2022-08-04T04:43:02;21.80;99.90
3644;DHT22;1838;50.742;7.158;2022-08-04T04:45:53;22.00;99.90
3644;DHT22;1838;50.742;7.158;2022-08-04T04:48:35;22.30;99.90
3644;DHT22;1838;50.742;7.158;2022-08-04T04:51:14;22.50;99.90
3644;DHT22;1838;50.742;7.158;2022-08-04T04:53:53;22.60;99.90
3644;DHT22;1838;50.742;7.158;2022-08-04T04:56:39;22.80;99.90
3644;DHT22;1838;50.742;7.158;2022-08-04T04:59:14;23.00;99.90
3644;DHT22;1838;50.742;7.158;2022-08-04T05:02:13;23.30;99.90
3644;DHT22;1838;50.742;7.158;2022-08-04T05:10:34;24.00;99.90
3644;DHT22;1838;50.742;7.158;2022-08-04T05:15:55;23.90;99.90
3644;DHT22;1838;50.742;7.158;2022-08-04T05:18:26;24.10;99.90
3644;DHT22;1838;50.742;7.158;2022-08-04T05:20:57;24.40;99.90
3644;DHT22;1838;50.742;7.158;2022-08-04T05:23:28;24.70;99.90
3644;DHT22;1838;50.742;7.158;2022-08-04T05:25:57;25.10;99.90
3644;DHT22;1838;50.742;7.158;2022-08-04T05:28:40;25.40;99.90
3644;DHT22;1838;50.742;7.158;2022-08-04T05:31:21;25.80;99.90
3644;DHT22;1838;50.742;7.158;2022-08-04T05:33:56;26.10;99.90
3644;DHT22;1838;50.742;7.158;2022-08-04T05:36:33;26.20;99.90
3644;DHT22;1838;50.742;7.158;2022-08-04T05:39:02;26.30;99.90
3644;DHT22;1838;50.742;7.158;2022-08-04T05:41:32;26.60;99.90
3644;DHT22;1838;50.742;7.158;2022-08-04T05:43:59;26.80;99.90
3644;DHT22;1838;50.742;7.158;2022-08-04T05:46:26;27.10;99.90
3644;DHT22;1838;50.742;7.158;2022-08-04T05:48:53;27.20;99.90
3644;DHT22;1838;50.742;7.158;2022-08-04T05:51:19;27.30;99.90
3644;DHT22;1838;50.742;7.158;2022-08-04T05:53:45;27.70;99.90
3644;DHT22;1838;50.742;7.158;2022-08-04T05:56:13;27.80;99.90
3644;DHT22;1838;50.742;7.158;2022-08-04T05:58:40;28.10;99.90
3644;DHT22;1838;50.742;7.158;2022-08-04T06:01:07;28.50;99.90
3644;DHT22;1838;50.742;7.158;2022-08-04T06:03:35;29.00;99.90
3644;DHT22;1838;50.742;7.158;2022-08-04T06:06:02;29.40;99.90
3644;DHT22;1838;50.742;7.158;2022-08-04T06:08:29;29.30;99.90
3644;DHT22;1838;50.742;7.158;2022-08-04T06:10:56;29.30;99.80
3644;DHT22;1838;50.742;7.158;2022-08-04T06:13:29;29.10;99.20
3644;DHT22;1838;50.742;7.158;2022-08-04T06:15:55;29.10;99.30
3644;DHT22;1838;50.742;7.158;2022-08-04T06:18:22;28.60;99.10
3644;DHT22;1838;50.742;7.158;2022-08-04T06:20:51;28.30;99.90
3644;DHT22;1838;50.742;7.158;2022-08-04T06:23:18;28.10;99.90
3644;DHT22;1838;50.742;7.158;2022-08-04T06:25:52;27.80;99.90
3644;DHT22;1838;50.742;7.158;2022-08-04T06:28:19;27.50;99.90
3644;DHT22;1838;50.742;7.158;2022-08-04T06:30:46;27.20;99.90
3644;DHT22;1838;50.742;7.158;2022-08-04T06:33:15;27.00;99.90
3644;DHT22;1838;50.742;7.158;2022-08-04T06:36:01;26.90;99.90
3644;DHT22;1838;50.742;7.158;2022-08-04T06:38:28;26.90;99.90
3644;DHT22;1838;50.742;7.158;2022-08-04T06:40:55;27.00;99.90
3644;DHT22;1838;50.742;7.158;2022-08-04T06:43:25;27.10;99.90
3644;DHT22;1838;50.742;7.158;2022-08-04T06:45:52;27.40;99.90
3644;DHT22;1838;50.742;7.158;2022-08-04T06:48:18;27.70;99.90
3644;DHT22;1838;50.742;7.158;2022-08-04T06:50:49;27.90;99.90
3644;DHT22;1838;50.742;7.158;2022-08-04T06:53:16;28.40;99.90
3644;DHT22;1838;50.742;7.158;2022-08-04T06:55:44;28.60;99.90
3644;DHT22;1838;50.742;7.158;2022-08-04T06:58:11;28.90;99.90
3644;DHT22;1838;50.742;7.158;2022-08-04T07:00:39;29.30;99.30
3644;DHT22;1838;50.742;7.158;2022-08-04T07:03:05;29.90;97.10
3644;DHT22;1838;50.742;7.158;2022-08-04T07:05:32;30.00;96.20
3644;DHT22;1838;50.742;7.158;2022-08-04T07:07:58;30.10;95.10
3644;DHT22;1838;50.742;7.158;2022-08-04T07:10:26;30.10;94.70
3644;DHT22;1838;50.742;7.158;2022-08-04T07:12:52;30.20;94.20
3644;DHT22;1838;50.742;7.158;2022-08-04T07:15:18;30.40;93.70
3644;DHT22;1838;50.742;7.158;2022-08-04T07:17:45;30.60;93.30
3644;DHT22;1838;50.742;7.158;2022-08-04T07:20:11;31.00;91.90
3644;DHT22;1838;50.742;7.158;2022-08-04T07:22:37;31.40;91.40
3644;DHT22;1838;50.742;7.158;2022-08-04T07:25:08;31.70;89.00
3644;DHT22;1838;50.742;7.158;2022-08-04T07:27:34;31.80;86.60
3644;DHT22;1838;50.742;7.158;2022-08-04T07:30:01;31.80;86.60
3644;DHT22;1838;50.742;7.158;2022-08-04T07:32:28;31.90;85.20
3644;DHT22;1838;50.742;7.158;2022-08-04T07:34:54;32.20;84.30
3644;DHT22;1838;50.742;7.158;2022-08-04T07:37:20;32.50;81.40
3644;DHT22;1838;50.742;7.158;2022-08-04T07:39:45;32.60;80.70
3644;DHT22;1838;50.742;7.158;2022-08-04T07:42:12;32.80;79.10
3644;DHT22;1838;50.742;7.158;2022-08-04T07:44:38;32.90;77.20
3644;DHT22;1838;50.742;7.158;2022-08-04T07:47:05;32.80;77.00
3644;DHT22;1838;50.742;7.158;2022-08-04T07:49:31;33.00;74.30
3644;DHT22;1838;50.742;7.158;2022-08-04T07:51:58;32.90;73.10
3644;DHT22;1838;50.742;7.158;2022-08-04T07:54:23;32.90;72.10
3644;DHT22;1838;50.742;7.158;2022-08-04T07:56:51;32.90;71.80
3644;DHT22;1838;50.742;7.158;2022-08-04T07:59:18;33.00;71.30
3644;DHT22;1838;50.742;7.158;2022-08-04T08:01:45;32.70;71.20
3644;DHT22;1838;50.742;7.158;2022-08-04T08:04:11;32.50;72.00
3644;DHT22;1838;50.742;7.158;2022-08-04T08:06:38;32.20;72.80
3644;DHT22;1838;50.742;7.158;2022-08-04T08:09:09;32.20;73.40
3644;DHT22;1838;50.742;7.158;2022-08-04T08:11:35;32.30;73.40
3644;DHT22;1838;50.742;7.158;2022-08-04T08:14:01;32.60;74.30
3644;DHT22;1838;50.742;7.158;2022-08-04T08:16:27;32.90;72.80
3644;DHT22;1838;50.742;7.158;2022-08-04T08:18:54;33.30;71.50
3644;DHT22;1838;50.742;7.158;2022-08-04T08:21:21;33.70;71.00
3644;DHT22;1838;50.742;7.158;2022-08-04T08:23:47;34.00;66.10
3644;DHT22;1838;50.742;7.158;2022-08-04T08:26:13;34.00;65.20
3644;DHT22;1838;50.742;7.158;2022-08-04T08:28:39;33.80;66.00
3644;DHT22;1838;50.742;7.158;2022-08-04T08:31:05;33.80;65.70
3644;DHT22;1838;50.742;7.158;2022-08-04T08:33:31;34.10;65.40
3644;DHT22;1838;50.742;7.158;2022-08-04T08:36:08;34.50;63.30
3644;DHT22;1838;50.742;7.158;2022-08-04T08:41:42;34.90;61.30
3644;DHT22;1838;50.742;7.158;2022-08-04T08:44:47;35.40;60.20
3644;DHT22;1838;50.742;7.158;2022-08-04T09:12:38;39.10;51.50
3644;DHT22;1838;50.742;7.158;2022-08-04T09:18:12;39.50;48.90
3644;DHT22;1838;50.742;7.158;2022-08-04T09:20:53;39.40;49.20
3644;DHT22;1838;50.742;7.158;2022-08-04T09:26:19;39.00;49.20
3644;DHT22;1838;50.742;7.158;2022-08-04T09:28:59;38.70;49.60
3644;DHT22;1838;50.742;7.158;2022-08-04T09:31:34;38.50;49.30
3644;DHT22;1838;50.742;7.158;2022-08-04T09:34:09;38.50;49.50
3644;DHT22;1838;50.742;7.158;2022-08-04T09:36:41;38.60;49.10
3644;DHT22;1838;50.742;7.158;2022-08-04T09:39:32;38.70;48.10
3644;DHT22;1838;50.742;7.158;2022-08-04T09:42:27;39.10;47.50
3644;DHT22;1838;50.742;7.158;2022-08-04T09:45:23;39.40;46.30
3644;DHT22;1838;50.742;7.158;2022-08-04T09:48:18;39.60;46.10
3644;DHT22;1838;50.742;7.158;2022-08-04T09:50:52;39.90;46.80
3644;DHT22;1838;50.742;7.158;2022-08-04T09:56:25;40.70;44.70
3644;DHT22;1838;50.742;7.158;2022-08-04T09:59:03;41.00;44.20
3644;DHT22;1838;50.742;7.158;2022-08-04T10:01:34;41.20;43.30
3644;DHT22;1838;50.742;7.158;2022-08-04T10:04:02;41.50;43.20
3644;DHT22;1838;50.742;7.158;2022-08-04T10:06:47;41.80;43.40
3644;DHT22;1838;50.742;7.158;2022-08-04T10:09:51;42.10;41.90
3644;DHT22;1838;50.742;7.158;2022-08-04T10:12:26;42.40;42.40
3644;DHT22;1838;50.742;7.158;2022-08-04T10:18:07;43.10;41.50
3644;DHT22;1838;50.742;7.158;2022-08-04T10:20:45;43.30;40.60
3644;DHT22;1838;50.742;7.158;2022-08-04T10:28:54;43.70;40.00
3644;DHT22;1838;50.742;7.158;2022-08-04T10:31:29;43.30;39.60
3644;DHT22;1838;50.742;7.158;2022-08-04T10:34:11;42.90;39.50
3644;DHT22;1838;50.742;7.158;2022-08-04T10:37:23;42.70;39.80
3644;DHT22;1838;50.742;7.158;2022-08-04T10:39:46;42.60;39.60
3644;DHT22;1838;50.742;7.158;2022-08-04T10:42:36;42.70;40.50
3644;DHT22;1838;50.742;7.158;2022-08-04T10:45:24;42.70;39.50
3644;DHT22;1838;50.742;7.158;2022-08-04T10:47:58;42.70;39.00
3644;DHT22;1838;50.742;7.158;2022-08-04T10:50:28;42.70;39.80
3644;DHT22;1838;50.742;7.158;2022-08-04T10:53:00;42.50;39.60
3644;DHT22;1838;50.742;7.158;2022-08-04T10:55:35;42.40;39.70
3644;DHT22;1838;50.742;7.158;2022-08-04T10:58:10;41.90;40.00
3644;DHT22;1838;50.742;7.158;2022-08-04T11:00:40;41.50;39.80
3644;DHT22;1838;50.742;7.158;2022-08-04T11:03:25;41.20;40.00
3644;DHT22;1838;50.742;7.158;2022-08-04T11:05:57;40.80;39.90
3644;DHT22;1838;50.742;7.158;2022-08-04T11:08:34;40.50;40.30
3644;DHT22;1838;50.742;7.158;2022-08-04T11:13:35;40.20;38.80
3644;DHT22;1838;50.742;7.158;2022-08-04T11:16:05;40.30;38.40
3644;DHT22;1838;50.742;7.158;2022-08-04T11:18:52;40.10;38.70
3644;DHT22;1838;50.742;7.158;2022-08-04T11:21:25;40.00;39.30
3644;DHT22;1838;50.742;7.158;2022-08-04T11:24:04;39.80;38.40
3644;DHT22;1838;50.742;7.158;2022-08-04T11:26:50;39.80;38.60
3644;DHT22;1838;50.742;7.158;2022-08-04T11:32:09;40.00;38.20
3644;DHT22;1838;50.742;7.158;2022-08-04T11:34:39;40.30;37.70
3644;DHT22;1838;50.742;7.158;2022-08-04T11:37:16;40.40;37.30
3644;DHT22;1838;50.742;7.158;2022-08-04T11:39:59;40.60;35.90
3644;DHT22;1838;50.742;7.158;2022-08-04T11:42:38;40.70;36.00
3644;DHT22;1838;50.742;7.158;2022-08-04T11:45:27;41.00;35.90
3644;DHT22;1838;50.742;7.158;2022-08-04T11:48:02;41.30;35.20
3644;DHT22;1838;50.742;7.158;2022-08-04T11:50:44;41.40;34.60
3644;DHT22;1838;50.742;7.158;2022-08-04T11:53:15;41.70;34.40
3644;DHT22;1838;50.742;7.158;2022-08-04T11:55:44;41.70;33.70
3644;DHT22;1838;50.742;7.158;2022-08-04T11:58:13;41.40;34.20
3644;DHT22;1838;50.742;7.158;2022-08-04T12:03:58;40.90;36.00
3644;DHT22;1838;50.742;7.158;2022-08-04T12:06:35;40.60;36.50
3644;DHT22;1838;50.742;7.158;2022-08-04T12:09:35;40.20;37.20
3644;DHT22;1838;50.742;7.158;2022-08-04T12:15:11;39.30;38.30
3644;DHT22;1838;50.742;7.158;2022-08-04T12:20:24;38.70;39.10
3644;DHT22;1838;50.742;7.158;2022-08-04T12:22:53;38.60;39.20
3644;DHT22;1838;50.742;7.158;2022-08-04T12:25:33;38.50;39.50
3644;DHT22;1838;50.742;7.158;2022-08-04T12:28:11;38.10;41.10
3644;DHT22;1838;50.742;7.158;2022-08-04T12:30:44;37.60;43.50
3644;DHT22;1838;50.742;7.158;2022-08-04T12:35:57;37.00;45.20
3644;DHT22;1838;50.742;7.158;2022-08-04T12:38:27;37.00;45.60
3644;DHT22;1838;50.742;7.158;2022-08-04T12:40:58;36.90;45.80
3644;DHT22;1838;50.742;7.158;2022-08-04T12:43:38;36.70;46.00
3644;DHT22;1838;50.742;7.158;2022-08-04T12:46:09;36.70;46.00
3644;DHT22;1838;50.742;7.158;2022-08-04T12:48:36;36.60;46.10
3644;DHT22;1838;50.742;7.158;2022-08-04T12:51:03;36.60;46.30
3644;DHT22;1838;50.742;7.158;2022-08-04T12:53:32;36.60;46.00
3644;DHT22;1838;50.742;7.158;2022-08-04T12:55:59;36.50;46.40
3644;DHT22;1838;50.742;7.158;2022-08-04T12:58:28;36.40;47.00
3644;DHT22;1838;50.742;7.158;2022-08-04T13:01:10;36.30;47.40
3644;DHT22;1838;50.742;7.158;2022-08-04T13:03:40;36.20;47.50
3644;DHT22;1838;50.742;7.158;2022-08-04T13:06:09;35.90;47.50
3644;DHT22;1838;50.742;7.158;2022-08-04T13:08:37;35.80;48.00
3644;DHT22;1838;50.742;7.158;2022-08-04T13:11:04;35.50;48.40
3644;DHT22;1838;50.742;7.158;2022-08-04T13:13:33;35.60;48.90
3644;DHT22;1838;50.742;7.158;2022-08-04T13:16:02;35.50;48.80
3644;DHT22;1838;50.742;7.158;2022-08-04T13:18:30;35.20;48.40
3644;DHT22;1838;50.742;7.158;2022-08-04T13:21:27;35.30;48.60
3644;DHT22;1838;50.742;7.158;2022-08-04T13:24:01;35.20;48.10
3644;DHT22;1838;50.742;7.158;2022-08-04T13:26:28;35.10;48.60
3644;DHT22;1838;50.742;7.158;2022-08-04T13:28:58;35.00;48.40
3644;DHT22;1838;50.742;7.158;2022-08-04T13:31:26;35.10;48.80
3644;DHT22;1838;50.742;7.158;2022-08-04T13:34:00;35.20;48.70
3644;DHT22;1838;50.742;7.158;2022-08-04T13:36:27;35.20;48.70
3644;DHT22;1838;50.742;7.158;2022-08-04T13:38:57;35.00;48.50
3644;DHT22;1838;50.742;7.158;2022-08-04T13:41:26;35.10;49.00
3644;DHT22;1838;50.742;7.158;2022-08-04T13:43:57;35.00;49.10
3644;DHT22;1838;50.742;7.158;2022-08-04T13:46:28;35.00;49.00
3644;DHT22;1838;50.742;7.158;2022-08-04T13:48:56;35.10;49.30
3644;DHT22;1838;50.742;7.158;2022-08-04T13:51:24;35.30;49.20
3644;DHT22;1838;50.742;7.158;2022-08-04T13:53:58;35.50;48.70
3644;DHT22;1838;50.742;7.158;2022-08-04T13:56:31;35.60;48.70
3644;DHT22;1838;50.742;7.158;2022-08-04T13:58:59;35.80;48.70
3644;DHT22;1838;50.742;7.158;2022-08-04T14:01:27;36.10;48.70
3644;DHT22;1838;50.742;7.158;2022-08-04T14:04:02;36.40;48.30
3644;DHT22;1838;50.742;7.158;2022-08-04T14:06:30;36.80;48.20
3644;DHT22;1838;50.742;7.158;2022-08-04T14:09:11;37.00;47.80
3644;DHT22;1838;50.742;7.158;2022-08-04T14:11:48;37.30;47.60
3644;DHT22;1838;50.742;7.158;2022-08-04T14:17:06;37.40;47.20
3644;DHT22;1838;50.742;7.158;2022-08-04T14:19:54;37.40;47.50
3644;DHT22;1838;50.742;7.158;2022-08-04T14:24:59;37.30;46.90
3644;DHT22;1838;50.742;7.158;2022-08-04T14:27:27;37.30;47.30
3644;DHT22;1838;50.742;7.158;2022-08-04T14:29:53;37.00;46.80
3644;DHT22;1838;50.742;7.158;2022-08-04T14:32:19;37.00;47.00
3644;DHT22;1838;50.742;7.158;2022-08-04T14:34:44;37.00;47.00
3644;DHT22;1838;50.742;7.158;2022-08-04T14:37:13;36.80;47.20
3644;DHT22;1838;50.742;7.158;2022-08-04T14:39:51;37.00;47.00
3644;DHT22;1838;50.742;7.158;2022-08-04T14:42:38;36.90;47.00
3644;DHT22;1838;50.742;7.158;2022-08-04T14:45:04;36.90;47.10
3644;DHT22;1838;50.742;7.158;2022-08-04T14:47:43;37.00;46.90
3644;DHT22;1838;50.742;7.158;2022-08-04T14:50:10;37.00;46.60
3644;DHT22;1838;50.742;7.158;2022-08-04T14:52:36;37.10;46.80
3644;DHT22;1838;50.742;7.158;2022-08-04T14:55:28;37.10;47.10
3644;DHT22;1838;50.742;7.158;2022-08-04T14:57:53;37.20;47.20
3644;DHT22;1838;50.742;7.158;2022-08-04T15:00:37;37.20;47.20
3644;DHT22;1838;50.742;7.158;2022-08-04T15:03:05;37.10;47.00
3644;DHT22;1838;50.742;7.158;2022-08-04T15:05:34;37.20;47.10
3644;DHT22;1838;50.742;7.158;2022-08-04T15:08:00;37.30;46.70
3644;DHT22;1838;50.742;7.158;2022-08-04T15:10:26;37.00;46.40
3644;DHT22;1838;50.742;7.158;2022-08-04T15:12:54;36.80;46.70
3644;DHT22;1838;50.742;7.158;2022-08-04T15:15:20;36.80;46.60
3644;DHT22;1838;50.742;7.158;2022-08-04T15:17:46;36.60;47.20
3644;DHT22;1838;50.742;7.158;2022-08-04T15:20:13;36.40;47.40
3644;DHT22;1838;50.742;7.158;2022-08-04T15:22:38;36.40;47.90
3644;DHT22;1838;50.742;7.158;2022-08-04T15:25:04;36.30;48.30
3644;DHT22;1838;50.742;7.158;2022-08-04T15:27:33;36.10;48.50
3644;DHT22;1838;50.742;7.158;2022-08-04T15:30:03;36.10;48.70
3644;DHT22;1838;50.742;7.158;2022-08-04T15:32:32;36.10;49.00
3644;DHT22;1838;50.742;7.158;2022-08-04T15:35:16;36.00;49.20
3644;DHT22;1838;50.742;7.158;2022-08-04T15:37:48;36.10;49.40
3644;DHT22;1838;50.742;7.158;2022-08-04T15:40:29;36.10;49.80
3644;DHT22;1838;50.742;7.158;2022-08-04T15:45:58;36.00;49.80
3644;DHT22;1838;50.742;7.158;2022-08-04T15:48:27;35.90;50.70
3644;DHT22;1838;50.742;7.158;2022-08-04T15:55:54;35.40;51.40
3644;DHT22;1838;50.742;7.158;2022-08-04T15:58:21;35.30;51.70
3644;DHT22;1838;50.742;7.158;2022-08-04T16:16:45;34.30;53.30
3644;DHT22;1838;50.742;7.158;2022-08-04T16:19:22;34.10;53.60
3644;DHT22;1838;50.742;7.158;2022-08-04T16:21:52;33.80;54.10
3644;DHT22;1838;50.742;7.158;2022-08-04T16:24:26;33.80;54.40
3644;DHT22;1838;50.742;7.158;2022-08-04T16:27:00;33.70;54.80
3644;DHT22;1838;50.742;7.158;2022-08-04T16:34:34;33.20;64.30
3644;DHT22;1838;50.742;7.158;2022-08-04T16:37:02;32.80;70.90
3644;DHT22;1838;50.742;7.158;2022-08-04T16:39:29;32.40;77.40
3644;DHT22;1838;50.742;7.158;2022-08-04T16:41:54;31.70;82.70
3644;DHT22;1838;50.742;7.158;2022-08-04T16:44:36;31.40;91.80
3644;DHT22;1838;50.742;7.158;2022-08-04T16:47:05;30.90;96.90
3644;DHT22;1838;50.742;7.158;2022-08-04T16:49:31;30.60;99.90
3644;DHT22;1838;50.742;7.158;2022-08-04T16:52:03;30.40;99.90
3644;DHT22;1838;50.742;7.158;2022-08-04T16:54:33;30.20;99.90
3644;DHT22;1838;50.742;7.158;2022-08-04T16:57:06;30.00;99.90
3644;DHT22;1838;50.742;7.158;2022-08-04T16:59:32;29.70;99.90
3644;DHT22;1838;50.742;7.158;2022-08-04T17:01:58;29.50;99.90
3644;DHT22;1838;50.742;7.158;2022-08-04T17:04:32;29.50;99.90
3644;DHT22;1838;50.742;7.158;2022-08-04T17:07:03;29.50;99.90
3644;DHT22;1838;50.742;7.158;2022-08-04T17:09:30;29.40;99.90
3644;DHT22;1838;50.742;7.158;2022-08-04T17:11:56;29.50;99.90
3644;DHT22;1838;50.742;7.158;2022-08-04T17:14:27;29.40;99.90
3644;DHT22;1838;50.742;7.158;2022-08-04T17:16:56;29.40;99.90
3644;DHT22;1838;50.742;7.158;2022-08-04T17:19:22;29.20;99.90
3644;DHT22;1838;50.742;7.158;2022-08-04T17:21:48;28.90;99.90
3644;DHT22;1838;50.742;7.158;2022-08-04T17:24:14;28.70;99.90
3644;DHT22;1838;50.742;7.158;2022-08-04T17:26:40;28.50;99.90
3644;DHT22;1838;50.742;7.158;2022-08-04T17:29:06;28.50;99.90
3644;DHT22;1838;50.742;7.158;2022-08-04T17:31:34;28.50;99.90
3644;DHT22;1838;50.742;7.158;2022-08-04T17:34:08;28.50;99.90
3644;DHT22;1838;50.742;7.158;2022-08-04T17:36:36;28.60;99.90
3644;DHT22;1838;50.742;7.158;2022-08-04T17:39:10;28.60;99.90
3644;DHT22;1838;50.742;7.158;2022-08-04T17:41:36;28.50;99.90
3644;DHT22;1838;50.742;7.158;2022-08-04T17:44:03;28.40;99.90
3644;DHT22;1838;50.742;7.158;2022-08-04T17:46:39;28.40;99.90
3644;DHT22;1838;50.742;7.158;2022-08-04T17:51:55;28.20;99.90
3644;DHT22;1838;50.742;7.158;2022-08-04T17:54:30;28.30;99.90
3644;DHT22;1838;50.742;7.158;2022-08-04T17:57:18;28.30;99.90
3644;DHT22;1838;50.742;7.158;2022-08-04T17:59:46;28.40;99.90
3644;DHT22;1838;50.742;7.158;2022-08-04T18:02:13;28.60;99.90
3644;DHT22;1838;50.742;7.158;2022-08-04T18:07:23;28.90;99.90
3644;DHT22;1838;50.742;7.158;2022-08-04T18:09:58;29.00;99.90
3644;DHT22;1838;50.742;7.158;2022-08-04T18:12:28;29.20;99.90
3644;DHT22;1838;50.742;7.158;2022-08-04T18:15:06;29.40;99.90
3644;DHT22;1838;50.742;7.158;2022-08-04T18:17:37;29.50;99.90
3644;DHT22;1838;50.742;7.158;2022-08-04T18:20:08;29.60;99.90
3644;DHT22;1838;50.742;7.158;2022-08-04T18:22:35;29.70;99.90
3644;DHT22;1838;50.742;7.158;2022-08-04T18:25:01;29.80;99.90
3644;DHT22;1838;50.742;7.158;2022-08-04T18:27:29;29.80;99.90
3644;DHT22;1838;50.742;7.158;2022-08-04T18:29:56;29.80;99.90
3644;DHT22;1838;50.742;7.158;2022-08-04T18:32:22;29.90;99.90
3644;DHT22;1838;50.742;7.158;2022-08-04T18:34:50;29.90;99.90
3644;DHT22;1838;50.742;7.158;2022-08-04T18:37:16;30.00;99.90
3644;DHT22;1838;50.742;7.158;2022-08-04T18:39:42;29.90;99.90
3644;DHT22;1838;50.742;7.158;2022-08-04T18:42:08;29.80;99.90
3644;DHT22;1838;50.742;7.158;2022-08-04T18:44:34;29.60;99.90
3644;DHT22;1838;50.742;7.158;2022-08-04T18:47:00;29.50;99.90
3644;DHT22;1838;50.742;7.158;2022-08-04T18:49:26;29.40;99.90
3644;DHT22;1838;50.742;7.158;2022-08-04T18:51:53;29.30;99.90
3644;DHT22;1838;50.742;7.158;2022-08-04T18:54:20;29.10;99.90
3644;DHT22;1838;50.742;7.158;2022-08-04T18:56:48;29.00;99.90
3644;DHT22;1838;50.742;7.158;2022-08-04T18:59:13;28.90;99.90
3644;DHT22;1838;50.742;7.158;2022-08-04T19:01:39;28.80;99.90
3644;DHT22;1838;50.742;7.158;2022-08-04T19:04:05;28.80;99.90
3644;DHT22;1838;50.742;7.158;2022-08-04T19:06:32;28.80;99.90
3644;DHT22;1838;50.742;7.158;2022-08-04T19:08:58;28.80;99.90
3644;DHT22;1838;50.742;7.158;2022-08-04T19:11:23;28.80;99.90
3644;DHT22;1838;50.742;7.158;2022-08-04T19:13:49;28.60;99.90
3644;DHT22;1838;50.742;7.158;2022-08-04T19:16:15;28.40;99.90
3644;DHT22;1838;50.742;7.158;2022-08-04T19:18:40;28.40;99.90
3644;DHT22;1838;50.742;7.158;2022-08-04T19:21:06;28.40;99.90
3644;DHT22;1838;50.742;7.158;2022-08-04T19:23:31;28.20;99.90
3644;DHT22;1838;50.742;7.158;2022-08-04T19:25:59;27.80;99.90
3644;DHT22;1838;50.742;7.158;2022-08-04T19:28:25;27.60;99.90
3644;DHT22;1838;50.742;7.158;2022-08-04T19:30:51;27.40;99.90
3644;DHT22;1838;50.742;7.158;2022-08-04T19:33:16;27.20;99.90
3644;DHT22;1838;50.742;7.158;2022-08-04T19:35:42;27.10;99.90
3644;DHT22;1838;50.742;7.158;2022-08-04T19:38:09;27.10;99.90
3644;DHT22;1838;50.742;7.158;2022-08-04T19:40:39;27.00;99.90
3644;DHT22;1838;50.742;7.158;2022-08-04T19:43:05;27.00;99.90
3644;DHT22;1838;50.742;7.158;2022-08-04T19:45:32;27.10;99.90
3644;DHT22;1838;50.742;7.158;2022-08-04T19:47:58;27.10;99.90
3644;DHT22;1838;50.742;7.158;2022-08-04T19:50:23;27.00;99.90
3644;DHT22;1838;50.742;7.158;2022-08-04T19:52:49;27.00;99.90
3644;DHT22;1838;50.742;7.158;2022-08-04T19:55:15;27.00;99.90
3644;DHT22;1838;50.742;7.158;2022-08-04T19:57:40;27.00;99.90
3644;DHT22;1838;50.742;7.158;2022-08-04T20:00:09;27.00;99.90